Time;durP1;ratioP1;P1;durP2;ratioP2;P2;SDS_P1;SDS_P2;PMS_P1;PMS_P2;Temp;Humidity;BMP_temperature;BMP_pressure;BME280_temperature;BME280_humidity;BME280_pressure;Samples;Min_cycle;Max_cycle;Signal;HPM_P1;HPM_P2
2023/09/16 00:00:09;;;;;;;3.53;1.83;;;;;;;26.12;44.27;100597.69;5112110;28;20476;-67
2023/09/16 00:02:38;;;;;;;3.75;2.10;;;;;;;26.11;44.70;100599.59;5112094;28;20126;-65
2023/09/16 00:05:07;;;;;;;3.35;1.77;;;;;;;26.11;44.34;100607.78;5111846;28;20054;-65
2023/09/16 00:07:36;;;;;;;3.63;1.80;;;;;;;26.09;44.21;100600.81;5111896;28;20825;-66
2023/09/16 00:10:05;;;;;;;3.63;1.90;;;;;;;26.09;44.32;100598.09;5111687;28;20506;-67
2023/09/16 00:12:35;;;;;;;5.15;1.90;;;;;;;26.07;44.56;100600.16;5112140;28;20077;-66
2023/09/16 00:15:06;;;;;;;3.47;1.75;;;;;;;26.07;44.40;100601.00;5112044;28;20385;-65
2023/09/16 00:17:35;;;;;;;3.88;1.98;;;;;;;26.05;44.39;100600.31;5093341;28;20059;-65
2023/09/16 00:20:11;;;;;;;3.10;1.90;;;;;;;26.05;44.21;100594.84;5111744;28;20043;-66
2023/09/16 00:22:40;;;;;;;3.40;1.75;;;;;;;26.05;44.75;100602.19;5112044;28;20044;-65
2023/09/16 00:25:10;;;;;;;3.70;1.88;;;;;;;26.02;44.53;100597.97;5111946;28;20398;-66
2023/09/16 00:27:40;;;;;;;3.60;1.67;;;;;;;26.02;44.25;100600.69;5111839;28;20089;-67
2023/09/16 00:30:11;;;;;;;3.60;2.10;;;;;;;26.03;44.25;100609.75;5114849;28;20108;-66
2023/09/16 00:32:39;;;;;;;3.20;1.90;;;;;;;26.01;44.48;100600.88;5115852;28;20043;-67
2023/09/16 00:35:09;;;;;;;3.20;1.75;;;;;;;26.00;44.45;100604.66;5115753;28;20132;-66
2023/09/16 00:37:41;;;;;;;3.78;1.90;;;;;;;25.97;44.68;100611.34;5115734;28;20453;-65
2023/09/16 00:40:11;;;;;;;3.25;1.73;;;;;;;25.98;44.71;100612.19;5115925;28;20131;-67
2023/09/16 00:42:39;;;;;;;3.47;1.60;;;;;;;25.97;44.46;100616.81;5116007;28;20051;-66
2023/09/16 00:45:10;;;;;;;2.88;1.77;;;;;;;25.97;44.33;100622.28;5115615;28;20048;-67
2023/09/16 00:47:40;;;;;;;3.13;1.92;;;;;;;25.95;44.62;100616.97;5115856;28;20044;-67
2023/09/16 00:50:10;;;;;;;2.65;1.70;;;;;;;25.94;44.22;100611.69;5115848;28;20051;-67
2023/09/16 00:52:42;;;;;;;3.15;1.80;;;;;;;25.94;44.51;100618.00;5115855;28;20047;-66
2023/09/16 00:55:10;;;;;;;3.50;2.03;;;;;;;25.93;44.82;100613.56;5115590;28;20359;-67
2023/09/16 00:57:41;;;;;;;3.78;1.92;;;;;;;25.91;44.62;100607.44;5115557;28;20066;-65
2023/09/16 01:00:12;;;;;;;3.80;2.03;;;;;;;25.90;44.66;100610.38;5115902;28;20082;-67
2023/09/16 01:02:40;;;;;;;3.67;1.80;;;;;;;25.88;44.64;100607.81;5116353;28;20083;-67
2023/09/16 01:05:14;;;;;;;3.55;1.90;;;;;;;25.88;44.81;100607.81;5115380;28;20134;-66
2023/09/16 01:07:45;;;;;;;3.20;1.88;;;;;;;25.87;44.81;100611.59;5115500;28;20484;-67
2023/09/16 01:10:15;;;;;;;2.70;1.70;;;;;;;25.86;44.33;100607.13;5115179;28;20060;-67
2023/09/16 01:12:44;;;;;;;3.08;1.77;;;;;;;25.85;44.55;100608.16;5115717;28;20131;-67
2023/09/16 01:15:16;;;;;;;3.83;1.70;;;;;;;25.84;44.77;100606.47;5115291;28;20055;-67
2023/09/16 01:17:50;;;;;;;3.43;1.80;;;;;;;25.83;44.91;100595.72;5115467;28;20147;-67
2023/09/16 01:20:21;;;;;;;3.17;1.80;;;;;;;25.83;44.36;100602.03;5114807;28;20280;-67
2023/09/16 01:22:49;;;;;;;3.08;1.60;;;;;;;25.82;44.50;100603.09;5114992;28;20154;-67
2023/09/16 01:25:19;;;;;;;3.35;2.03;;;;;;;25.81;44.77;100598.66;5114727;28;20487;-67
2023/09/16 01:27:48;;;;;;;4.40;2.00;;;;;;;25.82;44.69;100596.78;5115068;28;20098;-67
2023/09/16 01:30:17;;;;;;;4.00;2.00;;;;;;;25.79;44.44;100592.53;5115001;28;20047;-67
2023/09/16 01:32:50;;;;;;;3.92;2.00;;;;;;;25.79;44.97;100598.00;5115024;28;20476;-67
2023/09/16 01:35:21;;;;;;;4.40;1.90;;;;;;;25.79;44.98;100597.16;5114567;28;20040;-67
2023/09/16 01:37:53;;;;;;;3.67;1.88;;;;;;;25.78;44.57;100606.38;5114828;28;20047;-66
2023/09/16 01:40:28;;;;;;;3.03;1.73;;;;;;;25.76;44.92;100603.81;5114409;28;20382;-66
2023/09/16 01:42:58;;;;;;;2.97;1.77;;;;;;;25.76;44.81;100609.25;5114624;28;20126;-66
2023/09/16 01:45:28;;;;;;;3.13;1.77;;;;;;;25.75;44.99;100617.66;5114423;28;20050;-65
2023/09/16 01:47:56;;;;;;;4.55;2.30;;;;;;;25.74;44.83;100615.94;5114474;28;20043;-65
2023/09/16 01:50:25;;;;;;;2.83;1.83;;;;;;;25.73;44.88;100620.56;5114456;28;20461;-65
2023/09/16 01:52:53;;;;;;;4.63;2.00;;;;;;;25.72;45.02;100613.41;5114432;28;20048;-66
2023/09/16 01:55:23;;;;;;;3.78;2.20;;;;;;;25.69;44.92;100611.88;5114250;28;20048;-65
2023/09/16 01:57:52;;;;;;;3.28;1.80;;;;;;;25.71;44.98;100616.31;5114189;28;20060;-65
2023/09/16 02:00:20;;;;;;;2.85;1.80;;;;;;;25.71;44.71;100619.06;5114189;28;20051;-65
2023/09/16 02:02:49;;;;;;;3.03;1.73;;;;;;;25.68;44.60;100614.78;5114330;28;20043;-64
2023/09/16 02:05:17;;;;;;;3.53;2.00;;;;;;;25.67;44.60;100613.94;5114330;28;20040;-65
2023/09/16 02:07:46;;;;;;;3.85;2.08;;;;;;;25.68;44.91;100621.09;5114111;28;20073;-67
2023/09/16 02:10:15;;;;;;;2.72;1.63;;;;;;;25.66;45.00;100614.94;5113969;28;20057;-64
2023/09/16 02:12:44;;;;;;;4.57;2.00;;;;;;;25.65;44.85;100612.38;5113872;28;20082;-65
2023/09/16 02:15:12;;;;;;;3.08;1.90;;;;;;;25.64;44.92;100621.63;5096191;28;20078;-66
2023/09/16 02:17:41;;;;;;;3.55;1.80;;;;;;;25.61;45.07;100620.09;5114075;28;20050;-65
2023/09/16 02:20:11;;;;;;;3.42;1.90;;;;;;;25.62;44.76;100621.81;5114045;28;20664;-66
2023/09/16 02:22:41;;;;;;;3.25;1.73;;;;;;;25.61;44.81;100622.84;5113925;28;20082;-66
2023/09/16 02:25:10;;;;;;;3.83;2.00;;;;;;;25.61;44.88;100627.47;5113691;28;20515;-66
2023/09/16 02:27:39;;;;;;;3.90;1.90;;;;;;;25.60;44.86;100623.88;5113542;28;20056;-65
2023/09/16 02:30:09;;;;;;;3.00;1.83;;;;;;;25.59;44.62;100618.59;5113717;28;20043;-67
2023/09/16 02:32:37;;;;;;;3.17;1.90;;;;;;;25.60;44.81;100614.84;5113549;28;20048;-65
2023/09/16 02:35:06;;;;;;;2.80;1.70;;;;;;;25.58;44.65;100616.91;5113766;28;20079;-66
2023/09/16 02:37:35;;;;;;;2.85;1.70;;;;;;;25.58;44.76;100612.28;5113339;28;20485;-66
2023/09/16 02:40:03;;;;;;;3.15;1.90;;;;;;;25.56;44.96;100608.84;5113491;28;20089;-65
2023/09/16 02:42:31;;;;;;;2.92;1.60;;;;;;;25.56;44.82;100610.75;5113626;28;20189;-65
2023/09/16 02:45:01;;;;;;;3.33;1.80;;;;;;;25.56;44.85;100611.59;5113517;28;20118;-65
2023/09/16 02:47:30;;;;;;;2.67;1.50;;;;;;;25.53;44.70;100611.97;5113322;28;20476;-66
2023/09/16 02:50:01;;;;;;;3.35;1.70;;;;;;;25.54;44.90;100602.72;5113262;28;20092;-65
2023/09/16 02:52:30;;;;;;;3.17;2.03;;;;;;;25.54;44.74;100612.81;5112302;28;20048;-65
2023/09/16 02:54:58;;;;;;;4.25;1.90;;;;;;;25.53;44.63;100611.97;5112957;28;20488;-65
2023/09/16 02:57:27;;;;;;;4.13;1.90;;;;;;;25.52;44.79;100613.00;5113209;28;20048;-65
2023/09/16 02:59:55;;;;;;;3.42;1.70;;;;;;;25.51;44.89;100605.00;5112932;28;20496;-66
2023/09/16 03:02:23;;;;;;;3.58;1.85;;;;;;;25.49;44.56;100610.63;5113042;28;20438;-67
2023/09/16 03:04:53;;;;;;;3.17;1.80;;;;;;;25.48;44.77;100611.66;5112984;28;20055;-67
2023/09/16 03:07:21;;;;;;;4.03;2.10;;;;;;;25.47;44.64;100609.94;5112619;28;20386;-66
2023/09/16 03:09:49;;;;;;;4.78;2.10;;;;;;;25.48;45.01;100613.53;5113292;28;20048;-66
2023/09/16 03:12:18;;;;;;;3.58;2.05;;;;;;;25.47;44.84;100615.41;5112936;28;20048;-66
2023/09/16 03:14:48;;;;;;;4.22;1.90;;;;;;;25.47;44.95;100615.41;5112839;28;20065;-66
2023/09/16 03:17:16;;;;;;;4.05;2.20;;;;;;;25.47;44.74;100618.13;5112615;28;20044;-66
2023/09/16 03:19:44;;;;;;;3.28;1.98;;;;;;;25.45;44.86;100613.88;5112664;28;20126;-66
2023/09/16 03:22:14;;;;;;;3.53;2.00;;;;;;;25.43;44.99;100619.53;5112442;28;20160;-66
2023/09/16 03:24:43;;;;;;;3.22;1.65;;;;;;;25.42;44.77;100617.84;5112843;28;20136;-66
2023/09/16 03:27:11;;;;;;;3.15;1.80;;;;;;;25.42;44.65;100619.72;5112538;28;20409;-66
2023/09/16 03:29:40;;;;;;;3.25;1.77;;;;;;;25.40;44.76;100617.19;5094637;28;20069;-66
2023/09/16 03:32:08;;;;;;;3.30;1.83;;;;;;;25.39;44.69;100620.94;5112446;28;20173;-66
2023/09/16 03:34:36;;;;;;;4.13;2.03;;;;;;;25.39;44.80;100618.22;5112257;28;20048;-66
2023/09/16 03:37:05;;;;;;;4.05;2.10;;;;;;;25.36;44.83;100613.09;5112598;28;20050;-66
2023/09/16 03:39:35;;;;;;;2.80;1.95;;;;;;;25.37;44.83;100621.09;5112520;28;20048;-66
2023/09/16 03:42:03;;;;;;;4.30;2.10;;;;;;;25.36;44.93;100619.41;5112222;28;20047;-66
2023/09/16 03:44:31;;;;;;;3.85;1.83;;;;;;;25.35;45.14;100619.56;5112184;28;20496;-66
2023/09/16 03:47:00;;;;;;;4.10;1.80;;;;;;;25.32;45.10;100630.88;5111997;28;20043;-65
2023/09/16 03:49:31;;;;;;;3.03;1.75;;;;;;;25.32;44.66;100629.00;5094321;28;20052;-65
2023/09/16 03:51:59;;;;;;;2.55;1.70;;;;;;;25.32;45.00;100617.22;5112132;28;20047;-65
2023/09/16 03:54:28;;;;;;;4.70;2.00;;;;;;;25.32;44.99;100622.69;5111591;28;20138;-66
2023/09/16 03:57:00;;;;;;;3.55;2.03;;;;;;;25.30;44.64;100620.13;5112084;28;20465;-65
2023/09/16 03:59:29;;;;;;;3.20;1.80;;;;;;;25.31;44.66;100626.44;5111987;28;20492;-65
2023/09/16 04:01:57;;;;;;;3.03;1.98;;;;;;;25.28;45.11;100622.16;5112182;28;20075;-65
2023/09/16 04:04:26;;;;;;;3.97;2.00;;;;;;;25.29;45.04;100617.59;5112150;28;20056;-65
2023/09/16 04:06:54;;;;;;;3.78;2.10;;;;;;;25.27;44.89;100616.88;5112028;28;20053;-65
2023/09/16 04:09:22;;;;;;;4.05;2.15;;;;;;;25.27;44.76;100616.88;5112046;28;20048;-65
2023/09/16 04:11:51;;;;;;;3.70;2.05;;;;;;;25.25;44.89;100616.22;5112001;28;20089;-65
2023/09/16 04:14:23;;;;;;;4.03;1.95;;;;;;;25.25;44.76;100619.81;5111913;28;20668;-65
2023/09/16 04:16:51;;;;;;;3.00;1.90;;;;;;;25.23;44.80;100624.59;5112123;28;20127;-65
2023/09/16 04:19:20;;;;;;;4.53;2.03;;;;;;;25.24;44.95;100628.19;5112054;28;20533;-65
2023/09/16 04:21:49;;;;;;;4.35;2.00;;;;;;;25.23;44.94;100629.22;5111930;28;20138;-66
2023/09/16 04:24:20;;;;;;;3.00;1.88;;;;;;;25.21;44.77;100623.09;5111851;28;20079;-65
2023/09/16 04:26:48;;;;;;;3.42;2.15;;;;;;;25.21;44.83;100620.34;5111778;28;20054;-66
2023/09/16 04:29:17;;;;;;;4.60;2.15;;;;;;;25.20;44.69;100618.66;5112044;28;20466;-65
2023/09/16 04:31:47;;;;;;;3.47;1.83;;;;;;;25.19;44.85;100627.84;5112007;28;20051;-65
2023/09/16 04:34:16;;;;;;;3.50;1.90;;;;;;;25.16;44.68;100623.59;5111641;28;20044;-65
2023/09/16 04:36:44;;;;;;;3.90;1.73;;;;;;;25.17;44.84;100627.19;5111779;28;20123;-66
2023/09/16 04:39:12;;;;;;;3.65;1.75;;;;;;;25.17;45.11;100632.63;5111601;28;20091;-66
2023/09/16 04:41:40;;;;;;;2.83;1.52;;;;;;;25.16;44.92;100629.06;5111838;28;20408;-66
2023/09/16 04:44:09;;;;;;;3.03;1.80;;;;;;;25.15;45.06;100632.81;5111865;28;20142;-66
2023/09/16 04:46:37;;;;;;;3.25;2.08;;;;;;;25.14;45.08;100627.53;5111723;28;20071;-66
2023/09/16 04:49:07;;;;;;;3.00;1.77;;;;;;;25.12;44.74;100630.47;5111646;28;20112;-66
2023/09/16 04:51:35;;;;;;;3.10;1.88;;;;;;;25.13;44.73;100628.56;5111465;28;20054;-66
2023/09/16 04:54:04;;;;;;;3.45;1.98;;;;;;;25.11;45.04;100629.59;5093709;28;20468;-66
2023/09/16 04:56:33;;;;;;;4.78;2.00;;;;;;;25.09;44.83;100628.06;5111567;28;20058;-66
2023/09/16 04:59:01;;;;;;;4.00;2.10;;;;;;;25.08;45.00;100635.41;5111721;28;20385;-66
2023/09/16 05:01:30;;;;;;;4.63;2.00;;;;;;;25.08;44.90;100638.13;5111627;28;20047;-66
2023/09/16 05:03:58;;;;;;;3.50;2.00;;;;;;;25.08;44.78;100643.59;5111849;28;20454;-66
2023/09/16 05:06:28;;;;;;;3.30;2.03;;;;;;;25.07;44.78;100639.16;5111344;28;20044;-65
2023/09/16 05:08:57;;;;;;;2.97;1.73;;;;;;;25.07;45.19;100641.88;5111314;28;20453;-66
2023/09/16 05:11:25;;;;;;;3.10;1.63;;;;;;;25.05;44.85;100643.94;5111458;28;20385;-66
2023/09/16 05:13:53;;;;;;;3.95;2.30;;;;;;;25.06;45.13;100644.81;5111467;28;20063;-66
2023/09/16 05:16:22;;;;;;;3.67;1.88;;;;;;;25.06;44.95;100644.81;5114596;28;20051;-65
2023/09/16 05:18:50;;;;;;;2.97;1.85;;;;;;;25.03;44.92;100645.16;5115038;28;20469;-65
2023/09/16 05:21:19;;;;;;;4.20;2.05;;;;;;;25.02;45.02;100644.31;5114946;28;20051;-65
2023/09/16 05:23:52;;;;;;;3.42;1.70;;;;;;;25.02;44.95;100647.03;5115086;28;20048;-66
2023/09/16 05:26:20;;;;;;;;;;;;;;;25.02;44.97;100646.19;5115063;28;20039;-65
2023/09/16 05:28:50;;;;;;;2.90;1.70;;;;;;;25.01;44.82;100647.19;5114861;28;19973;-65
2023/09/16 05:31:19;;;;;;;2.72;1.70;;;;;;;25.00;44.98;100649.06;5114766;28;20048;-65
2023/09/16 05:33:47;;;;;;;4.18;2.00;;;;;;;24.99;45.22;100650.06;5114699;28;20043;-66
2023/09/16 05:36:15;;;;;;;3.22;1.90;;;;;;;25.01;44.90;100655.38;5114748;28;20048;-66
2023/09/16 05:38:43;;;;;;;3.30;1.73;;;;;;;25.00;44.82;100657.25;5114850;28;20079;-65
2023/09/16 05:41:16;;;;;;;3.88;1.83;;;;;;;25.00;45.20;100660.00;5114378;28;20609;-65
2023/09/16 05:43:44;;;;;;;4.20;1.95;;;;;;;25.00;45.04;100656.41;5114485;28;20492;-65
2023/09/16 05:46:13;;;;;;;6.15;1.90;;;;;;;24.98;44.92;100653.81;5114322;28;20051;-65
2023/09/16 05:48:44;;;;;;;3.63;1.95;;;;;;;24.98;45.26;100653.81;5114255;28;20090;-66
2023/09/16 05:51:12;;;;;;;3.50;1.80;;;;;;;24.97;45.21;100654.84;5114558;28;20095;-65
2023/09/16 05:53:43;;;;;;;4.30;1.92;;;;;;;24.99;45.12;100651.94;5114434;28;20046;-65
2023/09/16 05:56:13;;;;;;;3.58;1.80;;;;;;;24.97;45.04;100646.66;5114380;28;20044;-65
2023/09/16 05:58:41;;;;;;;3.60;1.90;;;;;;;24.97;45.09;100652.13;5114147;28;20043;-66
2023/09/16 06:01:09;;;;;;;3.00;1.73;;;;;;;24.98;45.01;100653.81;5114364;28;20051;-65
2023/09/16 06:03:38;;;;;;;3.10;1.83;;;;;;;24.97;45.33;100649.41;5114216;28;20488;-66
2023/09/16 06:06:07;;;;;;;3.95;2.00;;;;;;;24.97;45.17;100649.41;5114105;28;20044;-70
2023/09/16 06:08:35;;;;;;;3.67;1.95;;;;;;;24.97;45.34;100654.84;5114184;28;20056;-68
2023/09/16 06:11:03;;;;;;;2.60;1.70;;;;;;;24.98;44.92;100658.44;5114048;28;20131;-66
2023/09/16 06:13:33;;;;;;;4.00;1.90;;;;;;;24.98;45.10;100658.44;5113984;28;20044;-67
2023/09/16 06:16:01;;;;;;;3.58;1.65;;;;;;;24.98;44.97;100658.44;5113741;28;20499;-67
2023/09/16 06:18:34;;;;;;;3.53;1.98;;;;;;;24.97;45.18;100654.00;5114050;28;20043;-67
2023/09/16 06:21:03;;;;;;;3.40;2.00;;;;;;;24.97;44.90;100652.13;5113884;28;20458;-67
2023/09/16 06:23:31;;;;;;;3.42;1.75;;;;;;;24.96;45.29;100655.88;5113903;28;20085;-67
2023/09/16 06:25:59;;;;;;;3.10;1.70;;;;;;;24.97;45.33;100656.75;5112944;28;20044;-67
2023/09/16 06:28:28;;;;;;;3.53;1.83;;;;;;;24.97;45.24;100648.56;5113193;28;20505;-67
2023/09/16 06:30:57;;;;;;;4.25;1.90;;;;;;;24.96;45.21;100644.97;5113769;28;20040;-67
2023/09/16 06:33:26;;;;;;;3.25;1.80;;;;;;;24.96;45.25;100639.50;5113577;28;20043;-67
2023/09/16 06:35:54;;;;;;;3.30;2.08;;;;;;;24.95;45.10;100643.28;5113397;28;20047;-67
2023/09/16 06:38:22;;;;;;;3.70;1.88;;;;;;;24.94;45.05;100643.44;5113166;28;20079;-66
2023/09/16 06:40:51;;;;;;;3.38;1.88;;;;;;;24.95;44.97;100640.53;5113666;28;20044;-67
2023/09/16 06:43:19;;;;;;;3.28;1.67;;;;;;;24.95;44.99;100642.44;5113530;28;20378;-67
2023/09/16 06:45:49;;;;;;;3.90;2.08;;;;;;;24.96;45.16;100642.25;5113334;28;20466;-67
2023/09/16 06:48:19;;;;;;;4.93;2.00;;;;;;;24.95;45.21;100643.28;5113246;28;20577;-68
2023/09/16 06:50:47;;;;;;;3.92;1.80;;;;;;;24.95;45.05;100647.88;5113166;28;21419;-67
2023/09/16 06:53:16;;;;;;;3.58;2.00;;;;;;;24.95;45.46;100654.19;5113174;28;20485;-68
2023/09/16 06:55:44;;;;;;;3.13;1.80;;;;;;;24.95;45.61;100665.09;5095017;28;20419;-68
2023/09/16 06:58:12;;;;;;;3.38;1.80;;;;;;;24.95;45.24;100662.38;5113166;28;20149;-67
2023/09/16 07:00:58;;;;;;;4.13;1.90;;;;;;;24.95;45.30;100653.34;5113058;28;20051;-68
2023/09/16 07:03:28;;;;;;;3.25;1.73;;;;;;;24.95;45.67;100665.09;5112977;28;20507;-68
2023/09/16 07:05:56;;;;;;;2.92;1.90;;;;;;;24.96;45.21;100661.34;5112867;28;20629;-67
2023/09/16 07:08:30;;;;;;;3.33;1.80;;;;;;;24.96;45.53;100664.06;5113114;28;20450;-68
2023/09/16 07:11:02;;;;;;;3.22;1.70;;;;;;;24.96;45.29;100661.34;5112667;28;20047;-67
2023/09/16 07:13:30;;;;;;;3.67;2.08;;;;;;;24.97;45.21;100660.31;5112857;28;20142;-67
2023/09/16 07:15:59;;;;;;;2.90;1.75;;;;;;;24.96;45.06;100661.34;5112553;28;20054;-67
2023/09/16 07:18:30;;;;;;;3.20;1.45;;;;;;;24.97;45.59;100665.78;5112967;28;20075;-66
2023/09/16 07:20:59;;;;;;;2.83;1.77;;;;;;;24.97;45.73;100663.03;5113102;28;20408;-66
2023/09/16 07:23:27;;;;;;;3.58;1.60;;;;;;;24.97;45.30;100662.19;5112722;28;20112;-66
2023/09/16 07:25:56;;;;;;;3.75;1.88;;;;;;;24.97;45.40;100663.03;5112757;28;20058;-67
2023/09/16 07:28:26;;;;;;;2.58;1.63;;;;;;;24.98;45.64;100664.75;5112354;28;20044;-67
2023/09/16 07:30:55;;;;;;;3.00;1.65;;;;;;;24.96;45.42;100661.34;5112503;28;20075;-67
2023/09/16 07:33:23;;;;;;;3.47;1.95;;;;;;;24.99;45.31;100660.13;5112707;28;20139;-66
2023/09/16 07:35:53;;;;;;;3.40;1.65;;;;;;;24.99;45.42;100666.44;5112591;28;20050;-66
2023/09/16 07:38:24;;;;;;;2.65;1.70;;;;;;;25.00;45.62;100657.25;5112097;28;20052;-67
2023/09/16 07:40:53;;;;;;;3.15;1.60;;;;;;;24.99;45.49;100646.50;5112378;28;20078;-66
2023/09/16 07:43:21;;;;;;;4.15;2.00;;;;;;;25.02;45.40;100660.69;5112081;28;20127;-67
2023/09/16 07:45:51;;;;;;;3.38;1.70;;;;;;;25.02;45.57;100655.22;5108502;28;20040;-65
2023/09/16 07:48:23;;;;;;;4.50;2.05;;;;;;;25.01;45.54;100648.03;5100561;28;20090;-67
2023/09/16 07:50:56;;;;;;;2.85;1.73;;;;;;;25.03;45.47;100651.47;5109160;28;20155;-65
2023/09/16 07:53:30;;;;;;;2.45;1.42;;;;;;;25.05;45.42;100660.31;5111850;28;20043;-66
2023/09/16 07:55:58;;;;;;;2.58;1.58;;;;;;;25.05;45.69;100654.88;5111140;28;20140;-64
2023/09/16 07:58:26;;;;;;;3.30;1.98;;;;;;;25.07;45.54;100657.41;5111799;28;20044;-67
2023/09/16 08:00:55;;;;;;;3.13;1.83;;;;;;;25.06;45.72;100651.09;5112125;28;20127;-65
2023/09/16 08:03:24;;;;;;;2.63;1.70;;;;;;;25.08;45.50;100659.13;5111446;28;20075;-67
2023/09/16 08:05:53;;;;;;;3.92;1.90;;;;;;;25.07;45.37;100647.34;5111581;28;20051;-67
2023/09/16 08:08:23;;;;;;;4.15;2.58;;;;;;;25.08;45.75;100654.50;5111758;28;20044;-67
2023/09/16 08:10:51;;;;;;;5.00;1.90;;;;;;;25.08;45.85;100653.66;5111408;28;20167;-66
2023/09/16 08:13:20;;;;;;;4.15;2.05;;;;;;;25.08;46.51;100653.66;5111512;28;20047;-64
2023/09/16 08:15:48;;;;;;;3.50;2.00;;;;;;;25.09;46.75;100655.34;5111762;28;20149;-68
2023/09/16 08:18:17;;;;;;;6.95;2.00;;;;;;;25.08;47.13;100649.03;5111252;28;20050;-68
2023/09/16 08:20:45;;;;;;;6.72;2.25;;;;;;;25.10;46.73;100644.28;5111742;28;20051;-67
2023/09/16 08:23:18;;;;;;;;;;;;;;;25.11;47.12;100647.88;5111520;28;20047;-67
2023/09/16 08:25:47;;;;;;;4.70;2.20;;;;;;;25.13;46.99;100650.41;5111314;28;20022;-68
2023/09/16 08:28:19;;;;;;;4.75;2.20;;;;;;;25.14;46.65;100647.50;5111500;28;20047;-69
2023/09/16 08:30:47;;;;;;;5.43;2.10;;;;;;;25.14;46.96;100647.50;5108398;28;20158;-66
2023/09/16 08:33:15;;;;;;;5.28;2.05;;;;;;;25.16;46.65;100650.03;5109419;28;20044;-66
2023/09/16 08:35:44;;;;;;;5.35;2.10;;;;;;;25.17;46.68;100657.19;5110250;28;20211;-64
2023/09/16 08:38:12;;;;;;;3.67;2.20;;;;;;;25.18;46.73;100653.44;5110528;28;20519;-66
2023/09/16 08:40:41;;;;;;;6.25;2.40;;;;;;;25.19;46.49;100649.69;5110361;28;20043;-66
2023/09/16 08:43:15;;;;;;;3.83;2.10;;;;;;;25.19;46.35;100649.69;5110575;28;20047;-67
2023/09/16 08:45:48;;;;;;;4.32;2.00;;;;;;;25.21;46.74;100653.09;5110036;28;20093;-66
2023/09/16 08:48:21;;;;;;;4.25;2.08;;;;;;;25.22;46.60;100654.81;5109909;28;20036;-67
2023/09/16 08:50:54;;;;;;;4.88;2.10;;;;;;;25.23;46.60;100654.63;5101771;28;20101;-65
2023/09/16 08:53:26;;;;;;;3.20;1.83;;;;;;;25.23;46.82;100656.50;5097913;28;20126;-64
2023/09/16 08:55:55;;;;;;;3.13;1.80;;;;;;;25.25;46.42;100659.91;5114827;28;20140;-66
2023/09/16 08:58:25;;;;;;;3.78;1.90;;;;;;;25.24;46.59;100656.31;5114211;28;20418;-67
2023/09/16 09:00:54;;;;;;;4.60;2.20;;;;;;;25.28;46.35;100667.72;5114672;28;20454;-66
2023/09/16 09:03:23;;;;;;;4.13;2.10;;;;;;;25.27;46.44;100661.41;5114587;28;20044;-66
2023/09/16 09:05:52;;;;;;;4.22;2.05;;;;;;;25.30;46.56;100660.25;5114877;28;20071;-65
2023/09/16 09:08:21;;;;;;;4.03;2.28;;;;;;;25.32;46.18;100655.44;5114844;28;20404;-65
2023/09/16 09:10:50;;;;;;;3.92;1.90;;;;;;;25.33;46.77;100654.41;5114611;28;20073;-66
2023/09/16 09:13:20;;;;;;;3.75;1.83;;;;;;;25.33;46.50;100655.25;5113977;28;20086;-66
2023/09/16 09:15:55;;;;;;;3.58;1.90;;;;;;;25.35;46.36;100655.91;5114632;28;20054;-66
2023/09/16 09:18:26;;;;;;;4.95;2.05;;;;;;;25.36;46.39;100645.84;5114575;28;20044;-67
2023/09/16 09:20:55;;;;;;;3.58;2.00;;;;;;;25.39;46.44;100656.44;5114759;28;20140;-67
2023/09/16 09:23:25;;;;;;;3.88;1.88;;;;;;;25.40;46.68;100647.22;5113921;28;20040;-66
2023/09/16 09:25:53;;;;;;;3.88;2.00;;;;;;;25.42;46.27;100650.59;5113904;28;20412;-66
2023/09/16 09:28:22;;;;;;;3.15;1.92;;;;;;;25.43;46.52;100646.84;5113401;28;20100;-66
2023/09/16 09:30:53;;;;;;;3.63;2.08;;;;;;;25.45;46.40;100635.75;5114297;28;20051;-66
2023/09/16 09:33:22;;;;;;;4.43;2.20;;;;;;;25.47;46.51;100630.94;5114197;28;20092;-66
2023/09/16 09:35:50;;;;;;;4.53;2.42;;;;;;;25.46;46.26;100635.56;5114347;28;20043;-66
2023/09/16 09:38:20;;;;;;;3.78;2.15;;;;;;;25.48;46.17;100638.97;5114085;28;20054;-66
2023/09/16 09:40:58;;;;;;;4.47;1.95;;;;;;;25.50;46.44;100634.19;5114194;28;20052;-63
2023/09/16 09:43:29;;;;;;;4.63;2.30;;;;;;;25.52;46.29;100636.72;5113705;28;20381;-64
2023/09/16 09:45:59;;;;;;;4.45;2.00;;;;;;;25.53;46.25;100631.09;5113753;28;20086;-65
2023/09/16 09:48:27;;;;;;;6.05;2.40;;;;;;;25.55;46.38;100637.22;5114168;28;20035;-64
2023/09/16 09:50:56;;;;;;;4.53;2.40;;;;;;;25.58;46.46;100633.28;5113722;28;20104;-65
2023/09/16 09:56:27;;;;;;;5.35;2.30;;;;;;;25.62;46.30;100635.47;5093744;28;20066;-64
2023/09/16 09:58:56;;;;;;;5.85;2.30;;;;;;;25.64;46.40;100629.81;5111891;28;20047;-64
2023/09/16 10:01:31;;;;;;;4.05;2.30;;;;;;;25.65;46.94;100635.09;5113256;28;20531;-63
2023/09/16 10:04:02;;;;;;;4.28;2.13;;;;;;;25.65;46.92;100629.63;5098252;28;20461;-63
2023/09/16 10:06:31;;;;;;;7.28;2.50;;;;;;;25.69;46.96;100635.59;5113886;28;20044;-65
2023/09/16 10:08:59;;;;;;;5.63;2.35;;;;;;;25.72;46.85;100628.94;5114074;28;20040;-64
2023/09/16 10:11:32;;;;;;;4.78;2.20;;;;;;;25.72;46.62;100618.03;5113497;28;20108;-65
2023/09/16 10:14:00;;;;;;;3.75;2.20;;;;;;;25.75;46.88;100621.22;5114298;28;20043;-66
2023/09/16 10:16:31;;;;;;;4.82;2.20;;;;;;;25.77;46.53;100621.91;5114081;28;20134;-65
2023/09/16 10:19:03;;;;;;;4.50;2.30;;;;;;;25.77;46.61;100618.31;5114055;28;20043;-64
2023/09/16 10:21:31;;;;;;;4.60;2.50;;;;;;;25.79;46.57;100613.53;5113631;28;20044;-65
2023/09/16 10:24:00;;;;;;;4.20;2.28;;;;;;;25.81;46.49;100616.94;5113662;28;20035;-64
2023/09/16 10:26:28;;;;;;;4.68;2.22;;;;;;;25.82;46.85;100619.47;5113615;28;20075;-64
2023/09/16 10:28:59;;;;;;;4.07;2.10;;;;;;;25.84;46.46;100613.81;5113772;28;20071;-64
2023/09/16 10:31:30;;;;;;;5.03;2.33;;;;;;;25.83;46.70;100603.94;5094548;28;20502;-64
2023/09/16 10:33:58;;;;;;;5.20;2.22;;;;;;;25.85;46.88;100608.16;5113532;28;20040;-65
2023/09/16 10:36:28;;;;;;;5.53;2.28;;;;;;;25.85;47.00;100599.13;5113512;28;20066;-64
2023/09/16 10:39:00;;;;;;;4.70;2.35;;;;;;;25.90;46.72;100613.09;5113426;28;20130;-65
2023/09/16 10:41:31;;;;;;;4.95;2.40;;;;;;;25.91;46.74;100603.88;5111628;28;20051;-65
2023/09/16 10:44:01;;;;;;;5.25;2.35;;;;;;;25.92;47.06;100608.31;5112147;28;20095;-65
2023/09/16 10:46:34;;;;;;;5.53;2.65;;;;;;;25.92;47.40;100609.16;5111250;28;20051;-65
2023/09/16 10:49:03;;;;;;;;;;;;;;;25.93;47.08;100608.09;5111976;28;20051;-65
2023/09/16 10:51:39;;;;;;;4.65;2.30;;;;;;;25.94;47.44;100600.75;5111243;28;19942;-65
2023/09/16 10:54:12;;;;;;;9.88;2.47;;;;;;;25.94;47.18;100606.22;5112171;28;20050;-66
2023/09/16 10:56:44;;;;;;;4.32;2.42;;;;;;;25.95;46.78;100602.47;5112236;28;20055;-65
2023/09/16 10:59:17;;;;;;;4.55;2.45;;;;;;;25.96;47.17;100604.16;5112339;28;20173;-66
2023/09/16 11:01:56;;;;;;;3.92;2.25;;;;;;;25.97;47.17;100597.69;5113095;28;20408;-66
2023/09/16 11:04:25;;;;;;;3.70;2.17;;;;;;;25.99;47.00;100598.34;5113058;28;20078;-66
2023/09/16 11:06:58;;;;;;;5.10;2.45;;;;;;;26.01;46.74;100596.25;5113043;28;20051;-66
2023/09/16 11:09:28;;;;;;;3.90;2.20;;;;;;;26.02;46.76;100587.03;5113286;28;20054;-65
2023/09/16 11:11:57;;;;;;;4.60;2.40;;;;;;;26.03;46.91;100598.81;5112386;28;20447;-66
2023/09/16 11:14:26;;;;;;;5.93;2.65;;;;;;;26.04;46.96;100595.88;5112466;28;20079;-65
2023/09/16 11:16:58;;;;;;;7.03;2.67;;;;;;;26.05;46.58;100591.28;5113122;28;20048;-66
2023/09/16 11:19:28;;;;;;;7.40;2.42;;;;;;;26.06;46.62;100587.53;5113112;28;20181;-65
2023/09/16 11:21:58;;;;;;;4.47;2.22;;;;;;;26.08;46.97;100580.84;5113163;28;20043;-65
2023/09/16 11:24:29;;;;;;;4.65;2.33;;;;;;;26.08;46.96;100574.53;5112853;28;20050;-66
2023/09/16 11:26:59;;;;;;;4.55;2.40;;;;;;;26.10;47.06;100573.28;5112533;28;20054;-66
2023/09/16 11:29:31;;;;;;;4.25;2.40;;;;;;;26.10;46.75;100562.34;5112839;28;20224;-66
2023/09/16 11:32:02;;;;;;;4.95;2.20;;;;;;;26.13;46.69;100563.88;5112627;28;20059;-65
2023/09/16 11:34:32;;;;;;;4.53;2.38;;;;;;;26.13;46.72;100561.13;5112494;28;20096;-65
2023/09/16 11:37:02;;;;;;;5.65;2.53;;;;;;;26.15;46.88;100567.25;5112682;28;20040;-67
2023/09/16 11:39:35;;;;;;;4.20;2.33;;;;;;;26.14;46.69;100563.66;5112401;28;20103;-65